createdAt,value
2023-01-07T00:01:35.572Z,37.00
2023-01-07T00:04:04.024Z,34.23
2023-01-07T00:06:33.454Z,35.77
2023-01-07T00:09:01.099Z,32.17
2023-01-07T00:11:38.859Z,34.83
2023-01-07T00:14:07.900Z,35.67
2023-01-07T00:16:35.975Z,33.83
2023-01-07T00:19:04.965Z,34.87
2023-01-07T00:21:32.102Z,37.40
2023-01-07T00:24:01.070Z,34.07
2023-01-07T00:26:32.276Z,33.23
2023-01-07T00:29:00.134Z,35.73
2023-01-07T00:31:30.350Z,35.57
2023-01-07T00:33:57.882Z,36.40
2023-01-07T00:36:27.295Z,39.63
2023-01-07T00:39:01.197Z,40.60
2023-01-07T00:41:28.825Z,42.43
2023-01-07T00:43:56.456Z,45.63
2023-01-07T00:46:23.442Z,45.37
2023-01-07T00:48:50.521Z,50.10
2023-01-07T00:51:18.817Z,51.60
2023-01-07T00:53:45.852Z,57.10
2023-01-07T00:56:14.713Z,54.03
2023-01-07T00:58:42.084Z,62.70
2023-01-07T01:01:10.735Z,56.07
2023-01-07T01:03:38.367Z,63.20
2023-01-07T01:06:08.135Z,60.57
2023-01-07T01:08:35.351Z,57.37
2023-01-07T01:11:10.415Z,59.27
2023-01-07T01:13:37.667Z,59.10
2023-01-07T01:16:13.440Z,61.43
2023-01-07T01:18:41.026Z,58.73
2023-01-07T01:21:11.030Z,61.97
2023-01-07T01:23:38.740Z,74.33
2023-01-07T01:26:10.527Z,65.63
2023-01-07T01:28:38.358Z,74.70
2023-01-07T01:31:05.603Z,59.90
2023-01-07T01:33:32.458Z,69.90
2023-01-07T01:35:59.299Z,68.87
2023-01-07T01:38:26.182Z,66.60
2023-01-07T01:40:53.143Z,67.73
2023-01-07T01:43:31.071Z,65.97
2023-01-07T01:46:05.331Z,65.87
2023-01-07T01:48:35.335Z,67.40
2023-01-07T01:51:03.748Z,70.37
2023-01-07T01:53:34.079Z,72.13
2023-01-07T01:56:10.246Z,72.83
2023-01-07T01:58:41.869Z,69.67
2023-01-07T02:01:09.679Z,81.70
2023-01-07T02:03:38.946Z,65.97
2023-01-07T02:06:13.068Z,72.77
2023-01-07T02:08:39.898Z,69.20
2023-01-07T02:11:54.669Z,73.60
2023-01-07T02:14:33.722Z,69.53
2023-01-07T02:17:11.582Z,71.00
2023-01-07T02:20:04.463Z,73.70
2023-01-07T02:23:05.839Z,81.43
2023-01-07T02:26:31.704Z,81.97
2023-01-07T02:29:22.788Z,76.20
2023-01-07T02:32:19.227Z,66.50
2023-01-07T02:35:05.271Z,69.63
2023-01-07T02:37:53.297Z,75.07
2023-01-07T02:40:32.702Z,74.70
2023-01-07T02:43:30.212Z,74.87
2023-01-07T02:46:23.265Z,72.67
2023-01-07T02:48:51.767Z,74.20
2023-01-07T02:51:19.091Z,74.27
2023-01-07T02:53:48.438Z,77.50
2023-01-07T02:56:27.272Z,66.37
2023-01-07T02:59:02.254Z,67.40
2023-01-07T03:01:37.632Z,73.73
2023-01-07T03:04:04.533Z,70.00
2023-01-07T03:06:55.344Z,70.13
2023-01-07T03:09:40.231Z,66.17
2023-01-07T03:12:21.371Z,70.33
2023-01-07T03:14:57.397Z,71.60
2023-01-07T03:17:37.051Z,72.20
2023-01-07T03:20:06.064Z,72.50
2023-01-07T03:22:34.802Z,84.90
2023-01-07T03:25:03.614Z,69.57
2023-01-07T03:27:33.919Z,65.70
2023-01-07T03:30:05.501Z,72.30
2023-01-07T03:32:54.440Z,76.50
2023-01-07T03:35:23.361Z,70.20
2023-01-07T03:37:51.679Z,66.00
2023-01-07T03:40:20.545Z,70.27
2023-01-07T03:42:49.168Z,65.07
2023-01-07T03:45:24.728Z,65.93
2023-01-07T03:47:54.416Z,64.20
2023-01-07T03:50:22.713Z,62.50
2023-01-07T03:52:51.012Z,78.73
2023-01-07T03:55:19.851Z,71.53
2023-01-07T03:57:47.032Z,101.23
2023-01-07T04:00:15.359Z,69.50
2023-01-07T04:02:43.350Z,85.13
2023-01-07T04:05:11.262Z,67.03
2023-01-07T04:07:38.683Z,79.60
2023-01-07T04:10:07.232Z,69.67
2023-01-07T04:12:34.403Z,62.03
2023-01-07T04:15:01.639Z,67.57
2023-01-07T04:17:28.478Z,66.80
2023-01-07T04:19:55.328Z,60.40
2023-01-07T04:22:22.288Z,60.00
2023-01-07T04:24:49.113Z,58.93
2023-01-07T04:27:16.260Z,69.03
2023-01-07T04:29:43.093Z,60.90
2023-01-07T04:32:09.938Z,55.10
2023-01-07T04:34:36.827Z,57.53
2023-01-07T04:37:03.618Z,57.67
2023-01-07T04:39:30.499Z,57.27
2023-01-07T04:41:57.336Z,52.53
2023-01-07T04:44:24.153Z,56.13
2023-01-07T04:46:50.989Z,53.83
2023-01-07T04:49:17.972Z,58.43
2023-01-07T04:51:44.803Z,50.93
2023-01-07T04:54:11.659Z,52.57
2023-01-07T04:56:38.556Z,48.93
2023-01-07T04:59:05.414Z,48.33
2023-01-07T05:01:32.786Z,46.60
2023-01-07T05:03:59.842Z,51.33
2023-01-07T05:06:26.802Z,47.27
2023-01-07T05:08:54.149Z,48.33
2023-01-07T05:11:21.932Z,49.30
2023-01-07T05:13:49.952Z,45.00
2023-01-07T05:16:17.222Z,46.43
2023-01-07T05:18:44.379Z,49.90
2023-01-07T05:21:11.441Z,44.00
2023-01-07T05:23:38.418Z,46.50
2023-01-07T05:26:05.403Z,46.03
2023-01-07T05:28:32.265Z,49.80
2023-01-07T05:30:59.180Z,47.27
2023-01-07T05:33:26.023Z,46.73
2023-01-07T05:35:52.883Z,51.20
2023-01-07T05:38:19.690Z,48.40
2023-01-07T05:40:50.158Z,47.37
2023-01-07T05:43:17.484Z,41.17
2023-01-07T05:45:46.024Z,44.37
2023-01-07T05:48:13.917Z,44.37
2023-01-07T05:50:40.954Z,41.83
2023-01-07T05:53:08.098Z,37.93
2023-01-07T05:55:38.599Z,39.67
2023-01-07T05:58:05.804Z,40.07
2023-01-07T06:00:32.825Z,44.37
2023-01-07T06:02:59.673Z,42.77
2023-01-07T06:05:29.034Z,40.13
2023-01-07T06:07:55.815Z,43.47
2023-01-07T06:10:23.966Z,41.90
2023-01-07T06:12:51.434Z,42.07
2023-01-07T06:15:18.925Z,37.30
2023-01-07T06:17:45.825Z,38.27
2023-01-07T06:20:15.439Z,39.97
2023-01-07T06:22:43.518Z,40.03
2023-01-07T06:25:12.003Z,36.50
2023-01-07T06:27:40.710Z,42.60
2023-01-07T06:30:09.287Z,41.57
2023-01-07T06:32:40.726Z,36.67
2023-01-07T06:35:09.747Z,41.87
2023-01-07T06:37:37.510Z,39.60
2023-01-07T06:40:05.190Z,43.37
2023-01-07T06:42:32.070Z,46.10
2023-01-07T06:44:58.883Z,47.10
2023-01-07T06:47:25.913Z,43.97
2023-01-07T06:49:53.246Z,45.80
2023-01-07T06:52:20.314Z,46.87
2023-01-07T06:54:48.586Z,44.57
2023-01-07T06:57:15.650Z,42.87
2023-01-07T06:59:42.525Z,42.73
2023-01-07T07:02:18.620Z,40.03
2023-01-07T07:04:45.850Z,43.50
2023-01-07T07:07:13.118Z,42.77
2023-01-07T07:09:40.195Z,40.30
2023-01-07T07:12:07.691Z,41.70
2023-01-07T07:14:35.015Z,43.13
2023-01-07T07:17:02.347Z,45.30
2023-01-07T07:19:29.314Z,43.97
2023-01-07T07:21:59.842Z,38.53
2023-01-07T07:24:26.797Z,43.07
2023-01-07T07:26:53.840Z,41.63
2023-01-07T07:29:21.861Z,45.13
2023-01-07T07:31:48.943Z,42.13
2023-01-07T07:34:15.784Z,44.33
2023-01-07T07:36:42.764Z,45.83
2023-01-07T07:39:11.083Z,45.80
2023-01-07T07:41:38.196Z,41.97
2023-01-07T07:44:05.591Z,47.90
2023-01-07T07:46:33.911Z,45.23
2023-01-07T07:49:01.183Z,44.27
2023-01-07T07:51:28.137Z,41.03
2023-01-07T07:53:55.064Z,38.97
2023-01-07T07:56:21.969Z,40.17
2023-01-07T07:58:48.868Z,35.50
2023-01-07T08:01:15.745Z,28.53
2023-01-07T08:03:44.797Z,32.00
2023-01-07T08:06:13.044Z,34.43
2023-01-07T08:08:45.522Z,29.47
2023-01-07T08:11:12.449Z,32.50
2023-01-07T08:13:39.369Z,30.13
2023-01-07T08:16:06.674Z,28.63
2023-01-07T08:18:33.604Z,29.00
2023-01-07T08:21:00.724Z,30.87
2023-01-07T08:23:30.730Z,32.03
2023-01-07T08:26:03.185Z,28.70
2023-01-07T08:28:33.814Z,27.50
2023-01-07T08:31:05.489Z,32.53
2023-01-07T08:33:37.611Z,32.13
2023-01-07T08:36:09.362Z,29.23
2023-01-07T08:38:36.499Z,27.93
2023-01-07T08:41:03.883Z,33.47
2023-01-07T08:43:30.810Z,31.07
2023-01-07T08:45:57.707Z,29.57
2023-01-07T08:48:24.814Z,35.27
2023-01-07T08:50:53.610Z,30.27
2023-01-07T08:53:21.558Z,30.40
2023-01-07T08:55:51.041Z,31.07
2023-01-07T08:58:20.489Z,30.43
2023-01-07T09:00:54.206Z,26.20
2023-01-07T09:03:24.129Z,27.17
2023-01-07T09:05:56.758Z,26.37
2023-01-07T09:08:26.785Z,26.97
2023-01-07T09:10:53.789Z,26.87
2023-01-07T09:13:23.880Z,26.03
2023-01-07T09:15:53.269Z,29.37
2023-01-07T09:18:21.814Z,25.83
2023-01-07T09:20:48.765Z,27.87
2023-01-07T09:23:15.879Z,29.63
2023-01-07T09:25:42.918Z,33.13
2023-01-07T09:28:09.923Z,30.50
2023-01-07T09:30:37.566Z,29.33
2023-01-07T09:33:04.916Z,32.47
2023-01-07T09:35:47.563Z,32.37
2023-01-07T09:38:14.462Z,31.93
2023-01-07T09:40:43.279Z,31.70
2023-01-07T09:43:59.631Z,32.90
2023-01-07T09:46:22.929Z,33.87
2023-01-07T09:48:57.923Z,33.23
2023-01-07T09:51:43.860Z,33.30
2023-01-07T09:54:43.957Z,31.67
2023-01-07T09:57:17.464Z,35.37
2023-01-07T09:59:45.411Z,37.43
2023-01-07T10:02:44.274Z,35.57
2023-01-07T10:05:13.951Z,37.77
2023-01-07T10:07:51.594Z,35.83
2023-01-07T10:10:41.621Z,33.63
2023-01-07T10:13:29.643Z,35.67
2023-01-07T10:16:11.388Z,35.10
2023-01-07T10:18:53.168Z,37.43
2023-01-07T10:21:38.055Z,35.63
2023-01-07T10:24:13.538Z,34.87
2023-01-07T10:26:46.310Z,32.43
2023-01-07T10:29:16.340Z,35.77
2023-01-07T10:31:45.469Z,37.50
2023-01-07T10:34:27.543Z,32.67
2023-01-07T10:37:10.509Z,33.37
2023-01-07T10:39:52.595Z,35.23
2023-01-07T10:42:35.493Z,34.30
2023-01-07T10:45:40.844Z,34.50
2023-01-07T10:48:34.553Z,32.87
2023-01-07T10:51:23.668Z,31.20
2023-01-07T10:54:02.524Z,32.70
2023-01-07T10:56:36.885Z,28.17
2023-01-07T10:59:04.736Z,26.43
2023-01-07T11:01:39.004Z,30.30
2023-01-07T11:04:14.528Z,31.10
2023-01-07T11:06:46.418Z,33.10
2023-01-07T11:09:20.526Z,30.30
2023-01-07T11:11:48.715Z,30.73
2023-01-07T11:14:28.763Z,32.70
2023-01-07T11:17:23.260Z,26.60
2023-01-07T11:19:52.372Z,26.57
2023-01-07T11:22:29.491Z,26.30
2023-01-07T11:24:57.998Z,28.33
2023-01-07T11:27:31.505Z,28.00
2023-01-07T11:30:32.913Z,28.73
2023-01-07T11:33:07.937Z,27.13
2023-01-07T11:35:35.276Z,26.53
2023-01-07T11:38:02.242Z,27.23
2023-01-07T11:40:31.888Z,27.37
2023-01-07T11:43:18.359Z,26.13
2023-01-07T11:46:19.686Z,24.87
2023-01-07T11:48:46.852Z,27.00
2023-01-07T11:51:13.752Z,25.80
2023-01-07T11:53:49.868Z,26.33
2023-01-07T11:56:28.599Z,25.93
2023-01-07T11:59:25.740Z,25.47
2023-01-07T12:01:55.575Z,26.80
2023-01-07T12:04:37.053Z,25.30
2023-01-07T12:07:13.911Z,23.50
2023-01-07T12:09:43.240Z,23.67
2023-01-07T12:12:39.479Z,21.70
2023-01-07T12:15:19.756Z,23.30
2023-01-07T12:18:15.493Z,24.00
2023-01-07T12:21:03.867Z,24.70
2023-01-07T12:23:30.684Z,25.77
2023-01-07T12:26:35.372Z,22.87
2023-01-07T12:29:36.642Z,23.57
2023-01-07T12:32:31.141Z,27.83
2023-01-07T12:35:14.356Z,29.87
2023-01-07T12:37:48.265Z,30.00
2023-01-07T12:40:18.293Z,32.67
2023-01-07T12:42:55.266Z,27.27
2023-01-07T12:45:29.600Z,25.03
2023-01-07T12:48:03.184Z,26.30
2023-01-07T12:50:40.715Z,27.80
2023-01-07T12:53:07.583Z,25.80
2023-01-07T12:55:39.133Z,25.87
2023-01-07T12:58:18.837Z,26.00
2023-01-07T13:01:18.662Z,27.27
2023-01-07T13:03:54.165Z,25.70
2023-01-07T13:06:36.265Z,21.87
2023-01-07T13:09:16.248Z,24.03
2023-01-07T13:12:40.858Z,22.23
2023-01-07T13:15:00.968Z,22.93
2023-01-07T13:17:30.707Z,25.80
2023-01-07T13:19:58.200Z,20.37
2023-01-07T13:22:47.640Z,25.10
2023-01-07T13:25:33.871Z,22.13
2023-01-07T13:28:25.308Z,21.07
2023-01-07T13:31:42.694Z,22.43
2023-01-07T13:34:28.261Z,22.43
2023-01-07T13:37:03.977Z,23.87
2023-01-07T13:39:49.359Z,28.77
2023-01-07T13:43:07.447Z,30.07
2023-01-07T13:45:36.474Z,33.17
2023-01-07T13:48:06.642Z,34.53
2023-01-07T13:50:43.317Z,33.07
2023-01-07T13:53:16.163Z,35.00
2023-01-07T13:55:46.114Z,36.73
2023-01-07T13:58:31.182Z,36.47
2023-01-07T14:01:08.458Z,34.83
2023-01-07T14:03:53.671Z,37.93
2023-01-07T14:06:20.776Z,39.17
2023-01-07T14:09:07.969Z,38.23
2023-01-07T14:11:42.181Z,40.10
2023-01-07T14:14:46.427Z,35.43
2023-01-07T14:17:50.997Z,42.77
2023-01-07T14:20:30.978Z,41.07
2023-01-07T14:23:44.721Z,39.73
2023-01-07T14:26:17.631Z,42.07
2023-01-07T14:28:53.274Z,42.80
2023-01-07T14:31:22.020Z,37.87
2023-01-07T14:34:18.518Z,40.23
2023-01-07T14:37:09.045Z,36.30
2023-01-07T14:39:44.434Z,32.80
2023-01-07T14:42:44.447Z,31.00
2023-01-07T14:45:36.387Z,29.73
2023-01-07T14:48:30.268Z,28.40
2023-01-07T14:51:19.467Z,30.80
2023-01-07T14:54:28.232Z,25.43
2023-01-07T14:57:22.323Z,26.13
2023-01-07T14:59:52.089Z,24.27
2023-01-07T15:02:28.070Z,28.10
2023-01-07T15:05:13.217Z,25.37
2023-01-07T15:07:42.644Z,26.57
2023-01-07T15:10:41.871Z,24.10
2023-01-07T15:13:36.783Z,27.17
2023-01-07T15:16:11.460Z,24.53
2023-01-07T15:18:53.330Z,24.33
2023-01-07T15:21:33.792Z,25.43
2023-01-07T15:24:35.260Z,24.73
2023-01-07T15:27:07.703Z,27.30
2023-01-07T15:29:43.787Z,25.57
2023-01-07T15:32:49.971Z,25.03
2023-01-07T15:35:23.838Z,27.13
2023-01-07T15:37:51.701Z,25.10
2023-01-07T15:40:26.253Z,26.73
2023-01-07T15:42:57.192Z,25.13
2023-01-07T15:45:27.091Z,26.83
2023-01-07T15:48:11.370Z,29.10
2023-01-07T15:50:42.048Z,24.13
2023-01-07T15:53:11.915Z,28.80
2023-01-07T15:55:53.154Z,27.50
2023-01-07T15:58:26.631Z,30.43
2023-01-07T16:00:57.528Z,28.97
2023-01-07T16:03:25.251Z,27.47
2023-01-07T16:05:53.420Z,28.63
2023-01-07T16:08:39.750Z,28.77
2023-01-07T16:11:23.989Z,29.20
2023-01-07T16:13:58.773Z,27.90
2023-01-07T16:16:29.306Z,29.80
2023-01-07T16:18:57.102Z,28.40
2023-01-07T16:21:26.959Z,30.50
2023-01-07T16:23:54.391Z,30.13
2023-01-07T16:26:44.694Z,29.60
2023-01-07T16:29:36.042Z,31.97
2023-01-07T16:32:09.537Z,29.50
2023-01-07T16:34:36.357Z,33.47
2023-01-07T16:37:06.511Z,29.80
2023-01-07T16:39:38.851Z,28.80
2023-01-07T16:42:23.350Z,28.17
2023-01-07T16:44:51.405Z,30.20
2023-01-07T16:47:22.308Z,28.30
2023-01-07T16:49:54.385Z,27.47
2023-01-07T16:52:23.184Z,26.57
2023-01-07T16:54:50.497Z,30.37
2023-01-07T16:57:28.748Z,30.97
2023-01-07T16:59:57.816Z,30.60
2023-01-07T17:02:30.443Z,29.17
2023-01-07T17:05:12.906Z,31.27
2023-01-07T17:07:40.503Z,27.87
2023-01-07T17:10:17.020Z,30.00
2023-01-07T17:12:59.826Z,29.13
2023-01-07T17:15:32.965Z,28.43
2023-01-07T17:18:12.003Z,29.43
2023-01-07T17:20:57.190Z,32.33
2023-01-07T17:23:27.417Z,29.67
2023-01-07T17:26:13.334Z,29.10
2023-01-07T17:29:00.189Z,28.90
2023-01-07T17:31:28.181Z,33.93
2023-01-07T17:33:55.759Z,34.20
2023-01-07T17:36:25.210Z,32.43
2023-01-07T17:38:52.517Z,34.07
2023-01-07T17:41:40.595Z,37.53
2023-01-07T17:44:12.424Z,37.97
2023-01-07T17:46:40.050Z,42.80
2023-01-07T17:49:07.294Z,40.80
2023-01-07T17:51:38.592Z,39.47
2023-01-07T17:54:09.860Z,38.07
2023-01-07T17:56:36.814Z,45.60
2023-01-07T17:59:03.966Z,41.73
2023-01-07T18:01:31.604Z,45.40
2023-01-07T18:03:58.598Z,42.73
2023-01-07T18:06:27.762Z,42.33
2023-01-07T18:08:54.839Z,50.87
2023-01-07T18:11:43.568Z,43.43
2023-01-07T18:14:13.476Z,44.63
2023-01-07T18:16:42.197Z,46.70
2023-01-07T18:19:12.839Z,49.40
2023-01-07T18:21:40.353Z,53.43
2023-01-07T18:24:07.674Z,48.50
2023-01-07T18:26:34.512Z,51.17
2023-01-07T18:29:01.443Z,51.77
2023-01-07T18:31:31.644Z,53.23
2023-01-07T18:33:59.121Z,55.00
2023-01-07T18:36:26.127Z,57.43
2023-01-07T18:38:53.301Z,58.50
2023-01-07T18:41:20.267Z,57.40
2023-01-07T18:43:47.815Z,61.10
2023-01-07T18:46:16.747Z,67.87
2023-01-07T18:48:45.291Z,61.27
2023-01-07T18:51:12.387Z,62.73
2023-01-07T18:53:39.850Z,62.83
2023-01-07T18:56:11.715Z,62.13
2023-01-07T18:58:39.895Z,68.20
2023-01-07T19:01:08.818Z,66.10
2023-01-07T19:03:37.047Z,65.47
2023-01-07T19:06:11.291Z,68.73
2023-01-07T19:08:39.307Z,70.43
2023-01-07T19:11:14.401Z,67.23
2023-01-07T19:13:42.040Z,66.33
2023-01-07T19:16:11.615Z,69.40
2023-01-07T19:18:39.577Z,64.23
2023-01-07T19:21:09.945Z,62.80
2023-01-07T19:23:37.004Z,61.47
2023-01-07T19:26:07.719Z,62.07
2023-01-07T19:28:34.707Z,62.27
2023-01-07T19:31:06.570Z,59.50
2023-01-07T19:33:34.500Z,64.20
2023-01-07T19:36:07.892Z,59.17
2023-01-07T19:38:42.127Z,58.13
2023-01-07T19:41:11.423Z,60.83
2023-01-07T19:43:39.110Z,62.10
2023-01-07T19:46:08.090Z,57.33
2023-01-07T19:48:35.157Z,62.97
2023-01-07T19:51:05.573Z,58.53
2023-01-07T19:53:33.835Z,59.67
2023-01-07T19:56:02.964Z,58.63
2023-01-07T19:58:30.390Z,59.07
2023-01-07T20:01:06.309Z,59.37
2023-01-07T20:03:35.060Z,54.77
2023-01-07T20:06:03.889Z,58.80
2023-01-07T20:08:31.021Z,56.10
2023-01-07T20:10:59.152Z,56.90
2023-01-07T20:13:28.143Z,53.33
2023-01-07T20:15:55.194Z,55.23
2023-01-07T20:18:25.139Z,53.57
2023-01-07T20:20:59.287Z,57.57
2023-01-07T20:23:27.521Z,51.43
2023-01-07T20:25:54.473Z,52.37
2023-01-07T20:28:21.890Z,49.90
2023-01-07T20:30:48.852Z,55.97
2023-01-07T20:33:15.899Z,51.77
2023-01-07T20:35:43.340Z,50.80
2023-01-07T20:38:11.502Z,53.10
2023-01-07T20:40:39.451Z,48.03
2023-01-07T20:43:07.763Z,51.60
2023-01-07T20:45:38.295Z,53.33
2023-01-07T20:48:05.638Z,52.33
2023-01-07T20:50:35.836Z,51.60
2023-01-07T20:53:03.007Z,48.97
2023-01-07T20:55:30.128Z,49.63
2023-01-07T20:57:58.570Z,54.30
2023-01-07T21:00:25.829Z,48.90
2023-01-07T21:02:53.161Z,54.27
2023-01-07T21:05:21.693Z,50.63
2023-01-07T21:07:48.921Z,51.97
2023-01-07T21:10:18.396Z,52.43
2023-01-07T21:12:45.971Z,57.57
2023-01-07T21:15:15.047Z,54.73
2023-01-07T21:17:42.663Z,51.10
2023-01-07T21:20:13.827Z,53.27
2023-01-07T21:22:41.353Z,49.20
2023-01-07T21:25:22.745Z,56.13
2023-01-07T21:27:54.873Z,55.63
2023-01-07T21:30:44.691Z,52.60
2023-01-07T21:33:11.805Z,56.30
2023-01-07T21:35:45.088Z,54.03
2023-01-07T21:38:30.378Z,56.10
2023-01-07T21:41:52.571Z,55.97
2023-01-07T21:44:30.783Z,53.17
2023-01-07T21:47:34.739Z,64.40
2023-01-07T21:50:07.551Z,53.80
2023-01-07T21:52:35.284Z,58.30
2023-01-07T21:55:02.272Z,55.33
2023-01-07T21:57:29.213Z,56.40
2023-01-07T21:59:56.373Z,56.93
2023-01-07T22:02:23.432Z,58.67
2023-01-07T22:04:50.771Z,61.80
2023-01-07T22:07:19.064Z,55.40
2023-01-07T22:09:46.775Z,58.17
2023-01-07T22:12:14.838Z,53.37
2023-01-07T22:14:41.897Z,53.27
2023-01-07T22:17:10.534Z,60.00
2023-01-07T22:19:37.400Z,55.70
2023-01-07T22:22:04.504Z,55.93
2023-01-07T22:24:31.502Z,56.97
2023-01-07T22:26:58.549Z,57.23
2023-01-07T22:29:25.584Z,59.07
2023-01-07T22:31:53.760Z,59.13
2023-01-07T22:34:20.813Z,57.67
2023-01-07T22:36:50.721Z,58.83
2023-01-07T22:39:26.187Z,60.10
2023-01-07T22:41:57.262Z,60.83
2023-01-07T22:44:33.347Z,62.60
2023-01-07T22:47:01.434Z,66.10
2023-01-07T22:49:30.850Z,66.03
2023-01-07T22:51:58.013Z,63.83
2023-01-07T22:54:25.881Z,57.27
2023-01-07T22:56:53.348Z,60.90
2023-01-07T22:59:20.367Z,59.23
2023-01-07T23:01:47.402Z,59.90
2023-01-07T23:04:14.386Z,62.27
2023-01-07T23:06:41.549Z,67.83
2023-01-07T23:09:08.551Z,67.50
2023-01-07T23:11:59.290Z,66.50
2023-01-07T23:14:30.300Z,64.40
2023-01-07T23:16:59.427Z,68.67
2023-01-07T23:19:26.489Z,67.80
2023-01-07T23:21:54.762Z,66.60
2023-01-07T23:24:23.453Z,67.50
2023-01-07T23:26:53.027Z,65.77
2023-01-07T23:29:21.061Z,67.83
2023-01-07T23:31:48.142Z,63.27
2023-01-07T23:34:15.708Z,67.57
2023-01-07T23:36:42.644Z,63.80
2023-01-07T23:39:09.601Z,63.47
2023-01-07T23:41:36.679Z,62.30
2023-01-07T23:44:03.708Z,67.77
2023-01-07T23:46:31.501Z,64.67
2023-01-07T23:48:58.335Z,59.47
2023-01-07T23:51:25.519Z,62.40
2023-01-07T23:53:52.419Z,57.97
2023-01-07T23:56:21.590Z,56.67
2023-01-07T23:58:49.825Z,63.57
